Inscriptos

800 Electronico
Fecha Serie Viento Presión Humedad Temperatura
16-09-2018 Final_A
Andarivel Nombre Dia Mes Año Equipo Mejor Marca
Borelli Mariana 30 10 1992 MALGO FMARP 2.07.44
Diogo Maria Ayelen 11 12 1991 EMAPM - 2.10.99
Chiappe Madsen Fiorella 1 1 1996 GEFAM - 2.11.00
Perez Rocio 18 11 1994 ECOTF ARDA 2.11.83
Ortiz Micaela 30 12 1997 ECOTF ARDA 2.13.53
Guerrero Antonella 16 7 1996 MMFAM - 2.13.83
Farias Evelin Micaela 22 1 1996 FTTAF - 2.13.99
Perez Manzini Maria Veronica 28 12 2001 MSIFA - 2.13.99
Luna Sambran Fedra Aldana 5 7 1995 FCMAX - 2.14.46
Ballesteros Shirley 31 1 1997 EBFAM - 2.18.99
Giovacchini Maria Margarita 17 5 2001 FTTAF FAM 2.18.99
Fairhurst Eugenia 9 3 2000 FCMAX - 2.19.00
Delfina Olivero 12 7 1999 QUIRO - 2.19.00
Macadam Ines 24 4 2001 CM8GG - 2.19.20
Vidal Abril 23 10 1998 FTTAF - 2.19.99
Noguera Maria Laura 9 5 2001 CADAF - 2.24.25
Sanchez Jesica 28 6 1987 FTTAF - 2.25.99
Burgos Daiana 11 8 2000 CMDB1 - 2.29.99
Urquiza Marianella 17 6 1998 PGARI - 2.30.99
Fernandez Johana 17 4 2000 JMCOR FMARP 2.30.99
Maldonado Valentina 8 5 2001 MSIFA - 2.30.99
Maria Belen Perez Orue 28 8 1995 AAMTE - 2.30.99
Suarez Camila Agostina 9 4 2001 EBFAM - 2.30.99
Borruso Milagros 8 3 2000 MUAVE - 2.31.99
Lazcano Manuela 2 9 1999 EMA3A 2.35.99
Fullaondo Echeverria Vannessa Lujan 20 2 1999 MAB - 2.35.99
Pereyra Luciana 23 5 1998 AAPCH - 2.38.99
Rodriguez Barbara 7 1 1980 EBFAM - 2.40.99
Gomez Angela Sofia 24 5 1997 PGARI - 2.40.99
Moyano Erika 27 8 2000 MAB - 2.51.99
Duran Maira 18 4 1998 PGARI - 3.08.99
Peloc Sonia Susana 21 9 1991 EMSAL - 9.99.99